createdAt,value
2022-11-01T00:05:03.190Z,999
2022-11-01T00:15:03.065Z,997
2022-11-01T00:25:03.190Z,997
2022-11-01T00:35:03.041Z,997
2022-11-01T00:45:03.161Z,997
2022-11-01T00:55:03.036Z,996
2022-11-01T01:05:03.161Z,996
2022-11-01T01:15:03.235Z,996
2022-11-01T01:25:03.153Z,996
2022-11-01T01:35:03.256Z,996
2022-11-01T01:45:03.153Z,995
2022-11-01T01:55:03.227Z,995
2022-11-01T02:05:03.142Z,995
2022-11-01T02:15:03.219Z,995
2022-11-01T02:25:03.135Z,995
2022-11-01T02:35:03.279Z,995
2022-11-01T02:45:03.220Z,995
2022-11-01T02:55:03.245Z,995
2022-11-01T03:05:03.366Z,995
2022-11-01T03:15:03.229Z,995
2022-11-01T03:25:03.363Z,995
2022-11-01T03:35:03.235Z,995
2022-11-01T03:45:03.353Z,995
2022-11-01T03:55:03.220Z,995
2022-11-01T04:05:03.360Z,995
2022-11-01T04:15:03.232Z,995
2022-11-01T04:25:03.345Z,995
2022-11-01T04:35:03.446Z,995
2022-11-01T04:45:03.335Z,995
2022-11-01T04:55:03.416Z,995
2022-11-01T05:05:03.331Z,995
2022-11-01T05:15:03.411Z,995
2022-11-01T05:25:03.338Z,995
2022-11-01T05:35:03.438Z,995
2022-11-01T05:45:03.547Z,995
2022-11-01T05:55:03.406Z,996
2022-11-01T06:05:03.661Z,996
2022-11-01T06:15:03.399Z,996
2022-11-01T06:25:03.522Z,996
2022-11-01T06:35:03.388Z,997
2022-11-01T06:45:03.513Z,997
2022-11-01T06:55:03.380Z,997
2022-11-01T07:05:03.512Z,997
2022-11-01T07:15:03.592Z,997
2022-11-01T07:25:03.550Z,997
2022-11-01T07:35:03.600Z,997
2022-11-01T07:45:03.505Z,997
2022-11-01T07:55:03.563Z,997
2022-11-01T08:05:03.493Z,997
2022-11-01T08:15:03.572Z,997
2022-11-01T08:25:03.500Z,997
2022-11-01T08:35:03.568Z,998
2022-11-01T08:45:03.693Z,998
2022-11-01T08:55:03.591Z,998
2022-11-01T09:05:03.713Z,998
2022-11-01T09:15:03.548Z,998
2022-11-01T09:25:03.675Z,998
2022-11-01T09:35:03.548Z,998
2022-11-01T09:45:03.676Z,998
2022-11-01T09:55:03.747Z,999
2022-11-01T10:05:03.666Z,999
2022-11-01T10:15:03.735Z,999
2022-11-01T10:25:03.658Z,999
2022-11-01T10:35:03.805Z,999
2022-11-01T10:45:04.107Z,1000
2022-11-01T10:55:03.847Z,1000
2022-11-01T11:05:03.731Z,1000
2022-11-01T11:15:03.798Z,1000
2022-11-01T11:25:03.720Z,1001
2022-11-01T11:35:03.898Z,1001
2022-11-01T11:45:03.752Z,1001
2022-11-01T11:55:03.815Z,1001
2022-11-01T12:05:03.778Z,1002
2022-11-01T12:15:03.830Z,1002
2022-11-01T12:25:03.939Z,1002
2022-11-01T12:35:04.001Z,1002
2022-11-01T12:45:03.922Z,1003
2022-11-01T12:55:03.800Z,1003
2022-11-01T13:05:03.942Z,1003
2022-11-01T13:15:03.811Z,1003
2022-11-01T13:25:03.934Z,1002
2022-11-01T13:35:03.788Z,1002
2022-11-01T13:45:03.912Z,1002
2022-11-01T13:55:04.001Z,1002
2022-11-01T14:05:03.929Z,1002
2022-11-01T14:15:03.998Z,1002
2022-11-01T14:25:03.940Z,1002
2022-11-01T14:35:04.000Z,1002
2022-11-01T14:45:03.914Z,1001
2022-11-01T14:55:04.012Z,1001
2022-11-01T15:05:03.908Z,1001
2022-11-01T15:15:03.961Z,1001
2022-11-01T15:25:04.083Z,1001
2022-11-01T15:35:03.962Z,1001
2022-11-01T15:45:04.087Z,1001
2022-11-01T15:55:03.970Z,1001
2022-11-01T16:05:04.119Z,1001
2022-11-01T16:15:03.974Z,1001
2022-11-01T16:25:04.065Z,1001
2022-11-01T16:35:03.975Z,1001
2022-11-01T16:45:04.100Z,1001
2022-11-01T16:55:04.161Z,1001
2022-11-01T17:05:04.068Z,1001
2022-11-01T17:15:04.151Z,1001
2022-11-01T17:25:04.082Z,1001
2022-11-01T17:35:04.173Z,1001
2022-11-01T17:45:04.391Z,1001
2022-11-01T17:55:04.139Z,1001
2022-11-01T18:05:04.078Z,1001
2022-11-01T18:15:04.151Z,1001
2022-11-01T18:25:04.279Z,1001
2022-11-01T18:35:04.420Z,1001
2022-11-01T18:45:04.302Z,1001
2022-11-01T18:55:04.151Z,1001
2022-11-01T19:35:04.271Z,1001
2022-11-01T19:45:04.313Z,1001
2022-11-01T19:55:04.619Z,1001
2022-11-01T20:05:04.305Z,1001
2022-11-01T20:15:04.180Z,1001
2022-11-01T20:25:04.364Z,1001
2022-11-01T20:35:04.231Z,1001
2022-11-01T20:45:04.444Z,1001
2022-11-01T20:55:04.392Z,1001
2022-11-01T21:05:04.312Z,1001
2022-11-01T21:15:04.382Z,1001
2022-11-01T21:25:04.307Z,1001
2022-11-01T21:35:04.378Z,1001
2022-11-01T21:45:04.305Z,1002
2022-11-01T21:55:04.414Z,1002
2022-11-01T22:05:04.524Z,1002
2022-11-01T22:15:04.374Z,1002
2022-11-01T22:25:04.499Z,1003
2022-11-01T22:35:04.363Z,1003
2022-11-01T22:45:04.590Z,1003
2022-11-01T22:55:04.361Z,1003
2022-11-01T23:05:04.475Z,1003
2022-11-01T23:15:04.357Z,1004
2022-11-01T23:25:04.488Z,1004
2022-11-01T23:35:04.560Z,1004
2022-11-01T23:45:04.551Z,1004
2022-11-01T23:55:04.575Z,1005
